Terminal Aerodrome Forecast
Issued by NWS

Home | Current Version | Previous Version | Text Only | Print | Product List | Glossary On
Versions: 1 2 3 4 5 6 7 8 9 10 11 12 13 14 15 16 17 18 19 20 21
173
FTUS43 KEAX 302042 AAC
TAFSTJ
TAF AMD
KSTJ 302042Z 3021/0118 15009KT P6SM VCSH SCT025 OVC040
     FM010400 VRB04KT P6SM -SHRADZ OVC008
     FM011500 29016KT P6SM OVC015=

USA.gov is the U.S. government's official web portal to all federal, state and local government web resources and services.